createdAt,value
2023-05-19T00:00:24.698Z,7.44
2023-05-19T00:03:17.915Z,7.46
2023-05-19T00:05:53.785Z,7.46
2023-05-19T00:08:26.058Z,7.47
2023-05-19T00:11:00.142Z,7.45
2023-05-19T00:13:32.343Z,7.44
2023-05-19T00:16:04.827Z,7.45
2023-05-19T00:18:36.430Z,7.47
2023-05-19T00:21:06.569Z,7.48
2023-05-19T00:23:38.139Z,7.46
2023-05-19T00:26:08.323Z,7.51
2023-05-19T00:28:40.035Z,7.52
2023-05-19T00:31:12.296Z,7.58
2023-05-19T00:33:43.824Z,7.64
2023-05-19T00:36:13.973Z,7.69
2023-05-19T00:38:45.526Z,7.70
2023-05-19T00:41:15.571Z,7.76
2023-05-19T00:43:47.792Z,7.76
2023-05-19T00:46:17.960Z,7.78
2023-05-19T00:48:49.587Z,7.75
2023-05-19T00:51:21.623Z,7.77
2023-05-19T00:53:53.305Z,7.78
2023-05-19T00:56:26.456Z,7.78
2023-05-19T00:58:58.447Z,7.75
2023-05-19T01:01:32.424Z,7.74
2023-05-19T01:04:05.295Z,7.76
2023-05-19T01:06:37.967Z,7.79
2023-05-19T01:09:09.565Z,7.82
2023-05-19T01:11:41.237Z,7.83
2023-05-19T01:14:13.584Z,7.83
2023-05-19T01:16:51.713Z,7.84
2023-05-19T01:19:41.946Z,7.80
2023-05-19T01:22:28.410Z,7.74
2023-05-19T01:25:17.700Z,7.70
2023-05-19T01:28:27.967Z,7.69
2023-05-19T01:31:01.311Z,7.70
2023-05-19T01:33:33.848Z,7.72
2023-05-19T01:36:08.680Z,7.74
2023-05-19T01:38:41.526Z,7.75
2023-05-19T01:41:15.813Z,7.73
2023-05-19T01:43:48.664Z,7.73
2023-05-19T01:46:20.470Z,7.73
2023-05-19T01:48:54.408Z,7.73
2023-05-19T01:51:26.179Z,7.73
2023-05-19T01:53:57.771Z,7.74
2023-05-19T01:56:35.091Z,7.74
2023-05-19T01:59:29.398Z,7.70
2023-05-19T02:02:06.948Z,7.71
2023-05-19T02:04:50.265Z,7.70
2023-05-19T02:07:32.137Z,7.68
2023-05-19T02:10:11.689Z,7.68
2023-05-19T02:12:44.691Z,7.67
2023-05-19T02:15:18.904Z,7.66
2023-05-19T02:17:52.110Z,7.67
2023-05-19T02:20:23.993Z,7.68
2023-05-19T02:22:55.583Z,7.68
2023-05-19T02:25:25.703Z,7.68
2023-05-19T02:27:57.222Z,7.63
2023-05-19T02:30:29.099Z,7.62
2023-05-19T02:32:59.502Z,7.60
2023-05-19T02:35:31.223Z,7.53
2023-05-19T02:38:01.305Z,7.53
2023-05-19T02:40:33.084Z,7.48
2023-05-19T02:43:04.891Z,7.47
2023-05-19T02:45:36.450Z,7.46
2023-05-19T02:48:08.717Z,7.45
2023-05-19T02:50:40.576Z,7.43
2023-05-19T02:53:12.732Z,7.42
2023-05-19T02:55:43.232Z,7.40
2023-05-19T02:58:14.853Z,7.32
2023-05-19T03:00:45.437Z,7.33
2023-05-19T03:03:17.314Z,7.32
2023-05-19T03:05:49.038Z,7.38
2023-05-19T03:08:19.747Z,7.40
2023-05-19T03:10:51.496Z,7.37
2023-05-19T03:13:23.062Z,7.37
2023-05-19T03:15:53.299Z,7.38
2023-05-19T03:18:25.231Z,7.36
2023-05-19T03:20:56.891Z,7.39
2023-05-19T03:23:27.219Z,7.39
2023-05-19T03:25:58.819Z,7.36
2023-05-19T03:28:30.857Z,7.38
2023-05-19T03:31:02.472Z,7.37
2023-05-19T03:33:38.578Z,7.36
2023-05-19T03:36:12.633Z,7.37
2023-05-19T03:38:44.264Z,7.39
2023-05-19T03:41:15.910Z,7.42
2023-05-19T03:43:47.525Z,7.46
2023-05-19T03:46:19.847Z,7.50
2023-05-19T03:48:59.601Z,7.53
2023-05-19T03:51:30.113Z,7.55
2023-05-19T03:54:09.438Z,7.52
2023-05-19T03:56:44.148Z,7.55
2023-05-19T03:59:16.218Z,7.59
2023-05-19T04:01:48.725Z,7.63
2023-05-19T04:04:21.599Z,7.68
2023-05-19T04:06:53.208Z,7.76
2023-05-19T04:09:25.275Z,7.83
2023-05-19T04:11:56.801Z,7.87
2023-05-19T04:14:29.110Z,7.92
2023-05-19T04:16:59.988Z,7.96
2023-05-19T04:19:32.043Z,7.95
2023-05-19T04:22:03.743Z,8.00
2023-05-19T04:24:36.163Z,8.01
2023-05-19T04:27:12.111Z,8.04
2023-05-19T04:29:46.127Z,8.07
2023-05-19T04:32:18.544Z,8.09
2023-05-19T04:34:50.310Z,8.11
2023-05-19T04:37:27.543Z,8.15
2023-05-19T04:39:59.700Z,8.19
2023-05-19T04:42:33.102Z,8.24
2023-05-19T04:45:08.900Z,8.26
2023-05-19T04:47:42.843Z,8.28
2023-05-19T04:50:14.928Z,8.31
2023-05-19T04:52:47.105Z,8.34
2023-05-19T04:55:19.819Z,8.36
2023-05-19T04:57:52.677Z,8.36
2023-05-19T05:00:25.995Z,8.34
2023-05-19T05:03:05.141Z,8.32
2023-05-19T05:05:37.319Z,8.34
2023-05-19T05:08:11.026Z,8.35
2023-05-19T05:10:45.311Z,8.36
2023-05-19T05:13:16.256Z,8.41
2023-05-19T05:15:50.240Z,8.39
2023-05-19T05:18:23.531Z,8.44
2023-05-19T05:20:56.238Z,8.50
2023-05-19T05:23:31.615Z,8.54
2023-05-19T05:26:10.777Z,8.53
2023-05-19T05:28:44.465Z,8.54
2023-05-19T05:31:17.067Z,8.58
2023-05-19T05:33:49.158Z,8.62
2023-05-19T05:36:22.051Z,8.68
2023-05-19T05:38:53.660Z,8.72
2023-05-19T05:41:23.794Z,8.75
2023-05-19T05:43:55.886Z,8.72
2023-05-19T05:46:28.197Z,8.72
2023-05-19T05:49:01.051Z,8.75
2023-05-19T05:51:33.790Z,8.79
2023-05-19T05:54:08.401Z,8.83
2023-05-19T05:56:43.175Z,8.88
2023-05-19T05:59:14.765Z,8.91
2023-05-19T06:01:46.825Z,8.92
2023-05-19T06:04:21.138Z,8.96
2023-05-19T06:06:54.940Z,8.96
2023-05-19T06:09:27.206Z,8.95
2023-05-19T06:12:00.982Z,8.95
2023-05-19T06:14:35.699Z,8.98
2023-05-19T06:17:22.054Z,8.99
2023-05-19T06:19:53.694Z,9.02
2023-05-19T06:22:23.838Z,9.02
2023-05-19T06:24:55.430Z,9.00
2023-05-19T06:27:25.604Z,9.02
2023-05-19T06:29:57.587Z,9.01
2023-05-19T06:32:30.504Z,9.07
2023-05-19T06:35:02.616Z,9.12
2023-05-19T06:37:34.277Z,9.19
2023-05-19T06:40:07.026Z,9.23
2023-05-19T06:42:38.992Z,9.28
2023-05-19T06:45:21.803Z,9.30
2023-05-19T06:47:54.735Z,9.33
2023-05-19T06:50:26.517Z,9.34
2023-05-19T06:52:59.315Z,9.38
2023-05-19T06:55:30.934Z,9.42
2023-05-19T06:58:02.611Z,9.44
2023-05-19T07:00:35.034Z,9.49
2023-05-19T07:03:07.625Z,9.52
2023-05-19T07:05:39.249Z,9.56
2023-05-19T07:08:09.444Z,9.59
2023-05-19T07:10:41.192Z,9.58
2023-05-19T07:13:15.256Z,9.60
2023-05-19T07:15:48.938Z,9.59
2023-05-19T07:18:21.404Z,9.60
2023-05-19T07:20:54.437Z,9.65
2023-05-19T07:23:29.226Z,9.70
2023-05-19T07:26:00.808Z,9.75
2023-05-19T07:28:30.894Z,9.82
2023-05-19T07:31:02.513Z,9.83
2023-05-19T07:33:34.049Z,9.87
2023-05-19T07:36:04.402Z,9.94
2023-05-19T07:38:36.091Z,9.96
2023-05-19T07:41:08.199Z,10.02
2023-05-19T07:43:39.855Z,10.06
2023-05-19T07:46:10.180Z,10.10
2023-05-19T07:48:41.943Z,10.07
2023-05-19T07:51:13.624Z,10.11
2023-05-19T07:53:47.048Z,10.13
2023-05-19T07:56:18.750Z,10.13
2023-05-19T07:58:50.528Z,10.17
2023-05-19T08:01:22.135Z,10.21
2023-05-19T08:03:52.298Z,10.27
2023-05-19T08:06:25.286Z,10.25
2023-05-19T08:08:56.898Z,10.34
2023-05-19T08:11:28.484Z,10.40
2023-05-19T08:14:00.022Z,10.46
2023-05-19T08:16:30.225Z,10.50
2023-05-19T08:19:04.303Z,10.48
2023-05-19T08:21:36.622Z,10.53
2023-05-19T08:24:08.670Z,10.56
2023-05-19T08:26:40.250Z,10.54
2023-05-19T08:29:10.389Z,10.55
2023-05-19T08:31:42.519Z,10.52
2023-05-19T08:34:14.097Z,10.54
2023-05-19T08:36:45.333Z,10.54
2023-05-19T08:39:18.996Z,10.49
2023-05-19T08:41:50.583Z,10.52
2023-05-19T08:44:22.697Z,10.55
2023-05-19T08:46:57.038Z,10.56
2023-05-19T08:49:33.563Z,10.59
2023-05-19T08:52:16.498Z,10.63
2023-05-19T08:54:54.440Z,10.70
2023-05-19T08:57:28.183Z,10.75
2023-05-19T09:00:00.311Z,10.84
2023-05-19T09:02:32.291Z,10.95
2023-05-19T09:05:04.850Z,11.05
2023-05-19T09:07:38.760Z,11.17
2023-05-19T09:10:14.663Z,11.26
2023-05-19T09:12:48.811Z,11.33
2023-05-19T09:15:20.679Z,11.33
2023-05-19T09:17:52.344Z,11.28
2023-05-19T09:20:22.577Z,11.26
2023-05-19T09:22:54.110Z,11.23
2023-05-19T09:25:24.733Z,11.27
2023-05-19T09:27:57.741Z,11.29
2023-05-19T09:30:29.350Z,11.38
2023-05-19T09:33:01.330Z,11.42
2023-05-19T09:35:33.291Z,11.47
2023-05-19T09:38:05.094Z,11.53
2023-05-19T09:40:36.679Z,11.55
2023-05-19T09:43:10.893Z,11.52
2023-05-19T09:45:42.564Z,11.53
2023-05-19T09:48:15.026Z,11.56
2023-05-19T09:50:46.796Z,11.59
2023-05-19T09:53:19.565Z,11.57
2023-05-19T09:55:52.014Z,11.56
2023-05-19T09:58:24.201Z,11.57
2023-05-19T10:00:56.490Z,11.65
2023-05-19T10:03:29.210Z,11.74
2023-05-19T10:06:04.957Z,11.80
2023-05-19T10:08:38.108Z,11.87
2023-05-19T10:11:11.267Z,11.94
2023-05-19T10:13:43.799Z,11.93
2023-05-19T10:16:17.153Z,11.95
2023-05-19T10:18:50.868Z,12.02
2023-05-19T10:21:22.443Z,12.08
2023-05-19T10:23:54.073Z,12.10
2023-05-19T10:26:27.155Z,12.12
2023-05-19T10:28:59.325Z,12.10
2023-05-19T10:31:33.755Z,12.08
2023-05-19T10:34:24.651Z,12.08
2023-05-19T10:37:06.676Z,12.09
2023-05-19T10:39:42.100Z,12.12
2023-05-19T10:42:17.833Z,12.16
2023-05-19T10:44:59.653Z,12.15
2023-05-19T10:47:32.547Z,12.17
2023-05-19T10:50:06.658Z,12.21
2023-05-19T10:52:40.831Z,12.25
2023-05-19T10:55:15.691Z,12.30
2023-05-19T10:57:57.684Z,12.41
2023-05-19T11:00:33.811Z,12.49
2023-05-19T11:03:18.837Z,12.58
2023-05-19T11:05:52.339Z,12.62
2023-05-19T11:08:36.408Z,12.67
2023-05-19T11:11:18.092Z,12.69
2023-05-19T11:13:55.168Z,12.73
2023-05-19T11:16:35.573Z,12.81
2023-05-19T11:19:08.737Z,12.88
2023-05-19T11:21:50.586Z,12.91
2023-05-19T11:24:36.745Z,12.93
2023-05-19T11:27:28.890Z,12.94
2023-05-19T11:30:01.785Z,12.99
2023-05-19T11:32:35.808Z,13.01
2023-05-19T11:35:08.736Z,13.04
2023-05-19T11:37:42.599Z,13.01
2023-05-19T11:40:16.517Z,13.01
2023-05-19T11:42:48.175Z,12.99
2023-05-19T11:45:18.470Z,13.01
2023-05-19T11:48:01.333Z,13.05
2023-05-19T11:50:36.862Z,13.18
2023-05-19T11:53:12.348Z,13.22
2023-05-19T11:55:48.589Z,13.29
2023-05-19T11:58:26.675Z,13.34
2023-05-19T12:00:58.594Z,13.40
2023-05-19T12:03:32.877Z,13.51
2023-05-19T12:06:11.956Z,13.57
2023-05-19T12:08:44.140Z,13.57
2023-05-19T12:11:18.061Z,13.49
2023-05-19T12:13:54.423Z,13.45
2023-05-19T12:16:33.656Z,13.46
2023-05-19T12:19:07.859Z,13.49
2023-05-19T12:21:40.187Z,13.50
2023-05-19T12:24:12.542Z,13.53
2023-05-19T12:26:44.656Z,13.61
2023-05-19T12:29:17.169Z,13.67
2023-05-19T12:31:56.195Z,13.72
2023-05-19T12:34:29.009Z,13.66
2023-05-19T12:37:02.961Z,13.64
2023-05-19T12:39:35.258Z,13.59
2023-05-19T12:42:10.873Z,13.51
2023-05-19T12:44:46.633Z,13.44
2023-05-19T12:47:19.964Z,13.40
2023-05-19T12:49:57.949Z,13.34
2023-05-19T12:52:31.583Z,13.37
2023-05-19T12:55:06.997Z,13.41
2023-05-19T12:57:39.583Z,13.33
2023-05-19T13:00:17.888Z,13.29
2023-05-19T13:03:01.533Z,13.24
2023-05-19T13:05:37.453Z,13.24
2023-05-19T13:08:10.393Z,13.24
2023-05-19T13:10:43.829Z,13.24
2023-05-19T13:13:15.741Z,13.28
2023-05-19T13:15:49.580Z,13.30
2023-05-19T13:18:21.258Z,13.32
2023-05-19T13:20:52.974Z,13.32
2023-05-19T13:23:25.705Z,13.33
2023-05-19T13:25:57.409Z,13.30
2023-05-19T13:28:29.430Z,13.23
2023-05-19T13:31:01.098Z,13.15
2023-05-19T13:33:32.991Z,13.11
2023-05-19T13:36:04.663Z,13.16
2023-05-19T13:38:36.409Z,13.18
2023-05-19T13:41:10.084Z,13.14
2023-05-19T13:43:42.933Z,13.09
2023-05-19T13:46:14.794Z,13.11
2023-05-19T13:48:46.743Z,13.15
2023-05-19T13:51:18.691Z,13.14
2023-05-19T13:53:50.733Z,13.08
2023-05-19T13:56:23.181Z,13.07
2023-05-19T13:58:55.689Z,13.12
2023-05-19T14:01:27.998Z,13.17
2023-05-19T14:04:00.841Z,13.22
2023-05-19T14:06:33.240Z,13.19
2023-05-19T14:09:06.008Z,13.14
2023-05-19T14:11:38.027Z,13.12
2023-05-19T14:14:12.034Z,13.12
2023-05-19T14:16:44.345Z,13.04
2023-05-19T14:19:16.280Z,13.01
2023-05-19T14:21:47.999Z,12.98
2023-05-19T14:24:20.164Z,12.97
2023-05-19T14:26:52.637Z,12.98
2023-05-19T14:29:24.326Z,12.95
2023-05-19T14:31:55.957Z,12.91
2023-05-19T14:34:27.865Z,12.87
2023-05-19T14:36:59.384Z,12.80
2023-05-19T14:39:31.863Z,12.80
2023-05-19T14:42:03.559Z,12.79
2023-05-19T14:44:35.365Z,12.76
2023-05-19T14:47:08.438Z,12.78
2023-05-19T14:49:40.251Z,12.77
2023-05-19T14:52:11.791Z,12.75
2023-05-19T14:54:43.407Z,12.74
2023-05-19T14:57:15.146Z,12.75
2023-05-19T14:59:46.892Z,12.76
2023-05-19T15:02:18.519Z,12.79
2023-05-19T15:04:50.494Z,12.78
2023-05-19T15:07:22.302Z,12.78
2023-05-19T15:09:53.967Z,12.78
2023-05-19T15:12:25.601Z,12.73
2023-05-19T15:14:57.276Z,12.66
2023-05-19T15:17:28.958Z,12.59
2023-05-19T15:20:00.533Z,12.53
2023-05-19T15:22:32.189Z,12.47
2023-05-19T15:25:03.791Z,12.46
2023-05-19T15:27:37.244Z,12.47
2023-05-19T15:30:10.169Z,12.48
2023-05-19T15:32:42.108Z,12.49
2023-05-19T15:35:14.251Z,12.45
2023-05-19T15:37:46.032Z,12.41
2023-05-19T15:40:19.608Z,12.37
2023-05-19T15:42:51.375Z,12.36
2023-05-19T15:45:23.594Z,12.34
2023-05-19T15:47:56.193Z,12.35
2023-05-19T15:50:28.733Z,12.36
2023-05-19T15:53:00.662Z,12.35
2023-05-19T15:55:32.516Z,12.29
2023-05-19T15:58:04.348Z,12.25
2023-05-19T16:00:36.331Z,12.25
2023-05-19T16:03:08.785Z,12.26
2023-05-19T16:05:40.487Z,12.26
2023-05-19T16:08:12.719Z,12.23
2023-05-19T16:10:49.170Z,12.21
2023-05-19T16:13:21.167Z,12.24
2023-05-19T16:15:53.553Z,12.21
2023-05-19T16:18:26.199Z,12.16
2023-05-19T16:21:16.471Z,12.15
2023-05-19T16:23:49.397Z,12.11
2023-05-19T16:26:21.675Z,12.06
2023-05-19T16:28:53.975Z,12.02
2023-05-19T16:31:26.167Z,11.99
2023-05-19T16:33:58.588Z,11.97
2023-05-19T16:36:31.846Z,11.92
2023-05-19T16:39:03.586Z,11.89
2023-05-19T16:41:35.654Z,11.87
2023-05-19T16:44:07.893Z,11.85
2023-05-19T16:46:42.242Z,11.80
2023-05-19T16:49:14.124Z,11.76
2023-05-19T16:51:48.258Z,11.74
2023-05-19T16:54:21.008Z,11.74
2023-05-19T16:56:53.954Z,11.75
2023-05-19T16:59:26.407Z,11.72
2023-05-19T17:01:58.439Z,11.66
2023-05-19T17:04:30.993Z,11.63
2023-05-19T17:07:02.758Z,11.60
2023-05-19T17:09:34.589Z,11.57
2023-05-19T17:12:08.708Z,11.54
2023-05-19T17:14:44.181Z,11.51
2023-05-19T17:17:15.927Z,11.48
2023-05-19T17:19:47.809Z,11.45
2023-05-19T17:22:19.371Z,11.43
2023-05-19T17:24:51.041Z,11.42
2023-05-19T17:27:22.639Z,11.43
2023-05-19T17:29:52.805Z,11.45
2023-05-19T17:32:28.218Z,11.43
2023-05-19T17:35:00.613Z,11.45
2023-05-19T17:37:32.322Z,11.45
2023-05-19T17:40:04.030Z,11.44
2023-05-19T17:42:36.128Z,11.41
2023-05-19T17:45:12.023Z,11.38
2023-05-19T17:47:43.742Z,11.32
2023-05-19T17:50:15.354Z,11.27
2023-05-19T17:52:47.672Z,11.25
2023-05-19T17:55:21.171Z,11.25
2023-05-19T17:57:54.532Z,11.25
2023-05-19T18:00:27.413Z,11.25
2023-05-19T18:03:01.850Z,11.25
2023-05-19T18:05:34.649Z,11.24
2023-05-19T18:08:09.204Z,11.23
2023-05-19T18:10:42.326Z,11.23
2023-05-19T18:13:15.028Z,11.26
2023-05-19T18:15:46.725Z,11.26
2023-05-19T18:18:18.265Z,11.26
2023-05-19T18:20:49.950Z,11.27
2023-05-19T18:23:22.463Z,11.27
2023-05-19T18:25:54.326Z,11.25
2023-05-19T18:28:26.524Z,11.24
2023-05-19T18:31:05.635Z,11.23
2023-05-19T18:33:37.366Z,11.22
2023-05-19T18:36:09.977Z,11.21
2023-05-19T18:38:41.627Z,11.20
2023-05-19T18:41:14.540Z,11.21
2023-05-19T18:43:46.211Z,11.21
2023-05-19T18:46:19.750Z,11.20
2023-05-19T18:48:52.882Z,11.19
2023-05-19T18:51:24.480Z,11.18
2023-05-19T18:53:56.111Z,11.18
2023-05-19T18:56:26.572Z,11.18
2023-05-19T18:58:58.160Z,11.15
2023-05-19T19:01:29.897Z,11.16
2023-05-19T19:04:02.899Z,11.15
2023-05-19T19:06:34.568Z,11.13
2023-05-19T19:09:06.304Z,11.11
2023-05-19T19:11:37.938Z,11.11
2023-05-19T19:14:10.272Z,11.08
2023-05-19T19:16:41.882Z,11.06
2023-05-19T19:19:13.597Z,11.06
2023-05-19T19:21:45.256Z,11.06
2023-05-19T19:24:17.278Z,11.05
2023-05-19T19:26:48.990Z,11.05
2023-05-19T19:29:21.927Z,11.05
2023-05-19T19:31:54.022Z,11.04
2023-05-19T19:34:25.777Z,11.02
2023-05-19T19:36:57.344Z,11.01
2023-05-19T19:39:28.981Z,11.02
2023-05-19T19:42:00.574Z,11.05
2023-05-19T19:44:32.277Z,11.04
2023-05-19T19:47:06.043Z,11.01
2023-05-19T19:49:37.685Z,10.99
2023-05-19T19:52:12.007Z,10.97
2023-05-19T19:54:43.697Z,10.95
2023-05-19T19:57:17.199Z,10.92
2023-05-19T19:59:54.949Z,10.89
2023-05-19T20:02:26.888Z,10.87
2023-05-19T20:04:58.515Z,10.86
2023-05-19T20:07:28.632Z,10.87
2023-05-19T20:10:00.665Z,10.83
2023-05-19T20:12:32.433Z,10.84
2023-05-19T20:15:03.964Z,10.86
2023-05-19T20:17:34.074Z,10.87
2023-05-19T20:20:09.831Z,10.83
2023-05-19T20:22:44.287Z,10.83
2023-05-19T20:25:15.903Z,10.81
2023-05-19T20:27:45.994Z,10.80
2023-05-19T20:30:17.581Z,10.76
2023-05-19T20:32:49.141Z,10.79
2023-05-19T20:35:21.085Z,10.81
2023-05-19T20:37:52.571Z,10.81
2023-05-19T20:40:22.620Z,10.83
2023-05-19T20:42:54.196Z,10.80
2023-05-19T20:45:25.753Z,10.80
2023-05-19T20:47:56.227Z,10.78
2023-05-19T20:50:27.849Z,10.68
2023-05-19T20:52:59.434Z,10.65
2023-05-19T20:55:29.530Z,10.65
2023-05-19T20:58:01.066Z,10.61
2023-05-19T21:00:31.220Z,10.65
2023-05-19T21:03:02.975Z,10.62
2023-05-19T21:05:34.757Z,10.64
2023-05-19T21:08:12.514Z,10.65
2023-05-19T21:10:44.088Z,10.64
2023-05-19T21:13:14.230Z,10.62
2023-05-19T21:15:45.861Z,10.56
2023-05-19T21:18:17.455Z,10.54
2023-05-19T21:20:49.104Z,10.52
2023-05-19T21:23:20.641Z,10.49
2023-05-19T21:25:52.241Z,10.45
2023-05-19T21:28:24.148Z,10.38
2023-05-19T21:30:55.739Z,10.39
2023-05-19T21:33:27.380Z,10.41
2023-05-19T21:36:00.390Z,10.42
2023-05-19T21:38:32.062Z,10.43
2023-05-19T21:41:03.645Z,10.41
2023-05-19T21:43:33.729Z,10.40
2023-05-19T21:46:05.282Z,10.35
2023-05-19T21:48:36.878Z,10.36
2023-05-19T21:51:08.611Z,10.35
2023-05-19T21:53:40.534Z,10.36
2023-05-19T21:56:12.101Z,10.38
2023-05-19T21:58:43.905Z,10.39
2023-05-19T22:01:15.516Z,10.39
2023-05-19T22:03:47.175Z,10.39
2023-05-19T22:06:18.997Z,10.39
2023-05-19T22:08:50.559Z,10.39
2023-05-19T22:11:21.370Z,10.39
2023-05-19T22:13:54.683Z,10.34
2023-05-19T22:16:26.364Z,10.33
2023-05-19T22:18:58.212Z,10.33
2023-05-19T22:21:31.142Z,10.32
2023-05-19T22:24:02.637Z,10.31
2023-05-19T22:26:32.752Z,10.30
2023-05-19T22:29:04.345Z,10.27
2023-05-19T22:31:34.403Z,10.27
2023-05-19T22:34:05.881Z,10.22
2023-05-19T22:36:36.054Z,10.23
2023-05-19T22:39:07.874Z,10.19
2023-05-19T22:41:39.635Z,10.18
2023-05-19T22:44:15.363Z,10.19
2023-05-19T22:46:46.973Z,10.20
2023-05-19T22:49:17.116Z,10.23
2023-05-19T22:51:48.680Z,10.22
2023-05-19T22:54:20.261Z,10.26
2023-05-19T22:56:50.365Z,10.27
2023-05-19T22:59:21.891Z,10.23
2023-05-19T23:01:52.108Z,10.28
2023-05-19T23:04:23.741Z,10.27
2023-05-19T23:06:55.628Z,10.31
2023-05-19T23:09:27.322Z,10.31
2023-05-19T23:11:58.867Z,10.32
2023-05-19T23:14:28.952Z,10.34
2023-05-19T23:17:00.516Z,10.29
2023-05-19T23:19:31.940Z,10.31
2023-05-19T23:22:03.541Z,10.29
2023-05-19T23:24:35.144Z,10.33
2023-05-19T23:27:05.473Z,10.35
2023-05-19T23:29:37.056Z,10.33
2023-05-19T23:32:10.594Z,10.34
2023-05-19T23:34:42.092Z,10.34
2023-05-19T23:37:13.874Z,10.35
2023-05-19T23:39:45.499Z,10.36
2023-05-19T23:42:17.105Z,10.35
2023-05-19T23:44:48.755Z,10.35
2023-05-19T23:47:20.257Z,10.37
2023-05-19T23:49:50.394Z,10.39
2023-05-19T23:52:21.985Z,10.34
2023-05-19T23:54:53.569Z,10.35
2023-05-19T23:57:23.653Z,10.37
2023-05-19T23:59:55.200Z,10.33
